Mislata, Spain
Current Conditions -  °F | °C
As of 6:30 AM on Thursday 27 Nov 2014 (Local Time) from LEVC Reporting Station
Clear Clear  
Wind Chill: 50°   Ceiling: Unl
Heat Index: 50°   Visibility: 6mi
Dew Point: 45°   Wind: 3mph
Humidity: 82%   Direction: 330°NNW
Pressure: 29.74"   Gusts: NA
Location:  39.48°N, 0.42°W
Report Text: LEVC 270530Z 33003KT CAVOK 10/07 Q1007 NOSIG
Loading
Personal Weather Stations






























Interactive Weather Map New forecast layout! Learn more

10-Day Weather Forecast

Advertisements
Track Severe Weather on mobile